createdAt,value
2023-05-16T00:01:26.694Z,7.40
2023-05-16T00:11:51.833Z,6.60
2023-05-16T00:22:17.472Z,5.40
2023-05-16T00:32:45.469Z,5.60
2023-05-16T00:43:14.089Z,7.80
2023-05-16T00:53:39.228Z,7.70
2023-05-16T01:04:10.229Z,9.30
2023-05-16T01:15:07.132Z,7.60
2023-05-16T01:26:02.888Z,5.30
2023-05-16T01:36:42.277Z,6.90
2023-05-16T01:47:17.377Z,5.90
2023-05-16T01:57:44.238Z,6.30
2023-05-16T02:08:12.835Z,5.20
2023-05-16T02:18:37.534Z,5.70
2023-05-16T02:29:02.758Z,6.00
2023-05-16T02:39:27.663Z,6.80
2023-05-16T02:49:53.204Z,6.10
2023-05-16T03:00:19.192Z,6.10
2023-05-16T03:10:44.578Z,6.30
2023-05-16T03:21:12.013Z,5.60
2023-05-16T03:31:41.335Z,6.00
2023-05-16T03:42:07.974Z,8.00
2023-05-16T03:52:34.754Z,6.30
2023-05-16T04:03:00.927Z,8.60
2023-05-16T04:13:29.411Z,9.50
2023-05-16T04:23:55.039Z,8.00
2023-05-16T04:34:20.398Z,8.50
2023-05-16T04:44:45.239Z,6.90
2023-05-16T04:55:25.118Z,5.20
2023-05-16T05:05:50.939Z,6.50
2023-05-16T05:16:19.472Z,7.10
2023-05-16T05:26:49.116Z,6.20
2023-05-16T05:37:15.366Z,7.10
2023-05-16T05:47:40.996Z,7.80
2023-05-16T05:58:53.297Z,7.60
2023-05-16T06:10:11.782Z,9.20
2023-05-16T06:20:56.810Z,9.80
2023-05-16T06:31:22.158Z,10.90
2023-05-16T06:41:56.726Z,10.30
2023-05-16T06:53:07.679Z,11.20
2023-05-16T07:03:51.350Z,12.30
2023-05-16T07:14:16.264Z,12.70
2023-05-16T07:24:45.970Z,10.90
2023-05-16T07:35:13.982Z,12.20
2023-05-16T07:45:44.557Z,12.80
2023-05-16T07:56:25.732Z,12.60
2023-05-16T08:06:53.727Z,13.30
2023-05-16T08:17:22.544Z,15.50
2023-05-16T08:27:51.779Z,12.80
2023-05-16T08:38:20.282Z,11.50
2023-05-16T08:48:47.907Z,11.80
2023-05-16T08:59:13.348Z,15.90
2023-05-16T09:09:39.797Z,13.40
2023-05-16T09:20:23.943Z,14.60
2023-05-16T09:41:17.539Z,16.50
2023-05-16T09:51:42.990Z,15.80
2023-05-16T10:02:11.526Z,14.70
2023-05-16T10:12:39.154Z,15.70
2023-05-16T10:23:12.680Z,15.50
2023-05-16T10:33:52.495Z,16.80
2023-05-16T10:44:21.669Z,15.20
2023-05-16T10:54:53.884Z,16.60
2023-05-16T11:05:20.588Z,13.60
2023-05-16T11:15:46.854Z,13.30
2023-05-16T11:26:14.576Z,12.20
2023-05-16T11:36:45.881Z,10.70
2023-05-16T11:47:15.233Z,11.30
2023-05-16T11:57:46.324Z,11.60
2023-05-16T12:08:23.120Z,12.20
2023-05-16T12:19:19.657Z,10.00
2023-05-16T12:30:35.878Z,9.30
2023-05-16T12:42:11.420Z,8.80
2023-05-16T12:53:04.299Z,9.70
2023-05-16T13:03:32.178Z,9.30
2023-05-16T13:13:58.199Z,9.30
2023-05-16T13:24:27.320Z,9.70
2023-05-16T13:34:55.689Z,8.90
2023-05-16T13:45:21.159Z,9.40
2023-05-16T13:55:48.745Z,8.50
2023-05-16T14:06:14.271Z,8.80
2023-05-16T14:16:54.168Z,10.70
2023-05-16T14:27:22.634Z,9.00
2023-05-16T14:37:48.384Z,9.10
2023-05-16T14:48:17.633Z,10.40
2023-05-16T14:58:44.318Z,10.10
2023-05-16T15:09:09.873Z,9.80
2023-05-16T15:19:35.753Z,9.80
2023-05-16T15:30:16.213Z,9.50
2023-05-16T15:41:12.268Z,8.40
2023-05-16T15:51:43.208Z,7.50
2023-05-16T16:02:16.369Z,8.10
2023-05-16T16:12:43.625Z,10.10
2023-05-16T16:23:11.978Z,8.70
2023-05-16T16:34:12.557Z,7.20
2023-05-16T16:45:12.741Z,7.90
2023-05-16T16:55:46.391Z,8.50
2023-05-16T17:06:24.109Z,6.80
2023-05-16T17:17:04.226Z,6.60
2023-05-16T17:27:32.601Z,6.60
2023-05-16T17:37:58.131Z,7.30
2023-05-16T17:48:26.360Z,7.30
2023-05-16T17:58:51.061Z,6.00
2023-05-16T18:09:19.854Z,6.20
2023-05-16T18:19:55.007Z,5.50
2023-05-16T18:30:26.458Z,5.40
2023-05-16T18:40:52.606Z,6.10
2023-05-16T18:51:18.594Z,6.30
2023-05-16T19:01:47.669Z,5.80
2023-05-16T19:12:32.980Z,6.70
2023-05-16T19:23:16.834Z,5.40
2023-05-16T19:34:22.716Z,6.10
2023-05-16T19:45:02.591Z,5.50
2023-05-16T19:55:29.402Z,6.30
2023-05-16T20:05:57.777Z,5.30
2023-05-16T20:16:27.646Z,5.10
2023-05-16T20:26:52.882Z,5.90
2023-05-16T20:47:44.507Z,6.00
2023-05-16T20:58:09.630Z,6.50
2023-05-16T21:08:35.579Z,6.30
2023-05-16T21:19:03.472Z,6.40
2023-05-16T21:29:28.454Z,6.80
2023-05-16T21:39:53.984Z,6.20
2023-05-16T21:50:22.725Z,6.50
2023-05-16T22:01:13.901Z,6.60
2023-05-16T22:11:44.304Z,9.40
2023-05-16T22:22:16.183Z,8.80
2023-05-16T22:32:45.975Z,8.90
2023-05-16T22:43:14.172Z,8.90
2023-05-16T22:53:43.524Z,8.90
2023-05-16T23:04:09.284Z,8.40
2023-05-16T23:14:39.452Z,8.60
2023-05-16T23:25:31.935Z,8.20
2023-05-16T23:36:17.772Z,7.10
2023-05-16T23:46:52.869Z,5.70
2023-05-16T23:57:18.902Z,4.00
